23 mai 2022

Temps Code Temps Temp. Vue Des nuages Vent METAR/SPECI
05:50
V
11 °C 10 km+ 14.000 ft 090°   090° 3 kt METAR EDWE 230350Z AUTO 09003KT 9999 // SCT120/// BKN140/// 11/08 Q1008
05:20
V
11 °C 10 km+ 13.000 ft 090°   090° 4 kt METAR EDWE 230320Z AUTO 09004KT 9999 // BKN130/// BKN210/// 11/08 Q1008
04:50
V
10 °C 10 km+ - 090°   090° 6 kt METAR EDWE 230250Z AUTO 09006KT 9999 // FEW130/// SCT220/// 10/08 Q1008
04:20
V
11 °C 10 km+ 22.000 ft 100°   100° 5 kt METAR EDWE 230220Z AUTO 10005KT 9999 // BKN220/// 11/08 Q1009
03:50
V
11 °C 10 km+ - 100°   100° 7 kt METAR EDWE 230150Z AUTO 10007KT 9999 // FEW220/// 11/08 Q1009
03:20
V
12 °C 10 km+ - 110°   110° 8 kt METAR EDWE 230120Z AUTO 11008KT 9999 // FEW091/// SCT220/// 12/08 Q1009
02:50
V
13 °C 10 km+ 9.100 ft 110°   110° 9 kt METAR EDWE 230050Z AUTO 11009KT 9999 // BKN091/// 13/08 Q1010
02:20
V
12 °C 10 km+ 9.000 ft 100°   100° 6 kt METAR EDWE 230020Z AUTO 10006KT 9999 // BKN090/// 12/08 Q1010
01:50
V
13 °C 10 km+ 8.700 ft 100°   100° 5 kt METAR EDWE 222350Z AUTO 10005KT 9999 // BKN087/// 13/09 Q1011
01:20
V
13 °C 10 km+ 8.300 ft 100°   100° 6 kt METAR EDWE 222320Z AUTO 10006KT 9999 // OVC083/// 13/09 Q1011
00:50
V
13 °C 10 km+ 8.900 ft 100°   100° 7 kt METAR EDWE 222250Z AUTO 10007KT 9999 // BKN089/// 13/09 Q1011
00:20
V
12 °C 10 km+ 8.900 ft 090°   090° 6 kt METAR EDWE 222220Z AUTO 09006KT 9999 // BKN089/// 12/09 Q1011

22 mai 2022

Temps Code Temps Temp. Vue Des nuages Vent METAR/SPECI
23:50
V
12 °C 10 km+ - 090°   090° 5 kt METAR EDWE 222150Z AUTO 09005KT 9999 // SCT089/// 12/08 Q1012
23:20
V
12 °C 10 km+ - 090°   090° 5 kt METAR EDWE 222120Z AUTO 09005KT 9999 // FEW091/// 12/09 Q1012
22:50
V
12 °C 10 km+ - 090°   090° 4 kt METAR EDWE 222050Z AUTO 09004KT 9999 // NCD 12/10 Q1012
22:20
V
13 °C 10 km+ - 080°   080° 6 kt METAR EDWE 222020Z AUTO 08006KT 9999 // FEW093/// 13/10 Q1012
21:50
V
14 °C 10 km+ - 090°   090° 5 kt METAR EDWE 221950Z AUTO 09005KT 9999 // NCD 14/09 Q1012
21:20
V
14 °C 10 km+ - 120°   120° 3 kt METAR EDWE 221920Z AUTO 12003KT 090V150 9999 // NCD 14/09 Q1013
20:50
V
15 °C 10 km+ - 110°   110° 4 kt METAR EDWE 221850Z AUTO 11004KT 9999 // NCD 15/10 Q1013
20:20
V
16 °C 10 km+ - 110°   110° 6 kt METAR EDWE 221820Z AUTO 11006KT 9999 // NCD 16/09 Q1013
07:20
V
12 °C 10 km+ - 250°   250° 4 kt METAR EDWE 220520Z AUTO 25004KT 9999 // NCD 12/10 Q1017
06:50
V
10 °C 10 km+ - 240°   240° 3 kt METAR EDWE 220450Z AUTO 24003KT 9999 // NCD 10/09 Q1017
06:20
V
9 °C 10 km+ - 250°   250° 4 kt METAR EDWE 220420Z AUTO 25004KT 9999 // NCD 09/08 Q1017
05:50
V
9 °C 10 km+ - 250°   250° 4 kt METAR EDWE 220350Z AUTO 25004KT 9999 // NCD 09/08 Q1018
05:20
V
9 °C 10 km+ - 250°   250° 6 kt METAR EDWE 220320Z AUTO 25006KT 9999 // FEW240/// 09/08 Q1018
04:50
V
8 °C 10 km+ - 250°   250° 5 kt METAR EDWE 220250Z AUTO 25005KT 9999 // NCD 08/07 Q1018
04:20
V
9 °C 10 km+ - 240°   240° 4 kt METAR EDWE 220220Z AUTO 24004KT 9999 // NCD 09/08 Q1018
03:50
V
9 °C 10 km+ - 240°   240° 5 kt METAR EDWE 220150Z AUTO 24005KT 9999 // FEW026/// 09/08 Q1018
03:20
V
9 °C 10 km+ - 240°   240° 5 kt METAR EDWE 220120Z AUTO 24005KT 9999 // NCD 09/08 Q1018
02:50
V
9 °C 10 km+ - 250°   250° 4 kt METAR EDWE 220050Z AUTO 25004KT 9999 // NCD 09/08 Q1018
02:20
V
10 °C 10 km+ - 250°   250° 4 kt METAR EDWE 220020Z AUTO 25004KT 9999 // FEW130/// 10/08 Q1018
01:50
V
9 °C 10 km+ - 260°   260° 4 kt METAR EDWE 212350Z AUTO 26004KT 9999 // FEW130/// 09/08 Q1019
01:20
V
9 °C 10 km+ - 250°   250° 5 kt METAR EDWE 212320Z AUTO 25005KT 9999 // NCD 09/08 Q1019
00:50
V
9 °C 10 km+ - 250°   250° 5 kt METAR EDWE 212250Z AUTO 25005KT 9999 // NCD 09/08 Q1019
00:20
V
10 °C 10 km+ - 250°   250° 5 kt METAR EDWE 212220Z AUTO 25005KT 9999 // NCD 10/08 Q1019

21 mai 2022

Temps Code Temps Temp. Vue Des nuages Vent METAR/SPECI
23:50
V
10 °C 10 km+ - 240°   240° 5 kt METAR EDWE 212150Z AUTO 24005KT 9999 // SCT130/// 10/08 Q1019
23:20
V
10 °C 10 km+ 14.000 ft 260°   260° 5 kt METAR EDWE 212120Z AUTO 26005KT 9999 // BKN140/// 10/08 Q1019
22:50
V
11 °C 10 km+ - 270°   270° 6 kt METAR EDWE 212050Z AUTO 27006KT 9999 // NCD 11/08 Q1020
22:20
V
12 °C 10 km+ 17.000 ft 270°   270° 7 kt METAR EDWE 212020Z AUTO 27007KT 9999 // BKN170/// 12/08 Q1020
21:50
V
13 °C 10 km+ 16.000 ft 270°   270° 7 kt METAR EDWE 211950Z AUTO 27007KT 9999 // OVC160/// 13/09 Q1019
21:20
V
13 °C 10 km+ 15.000 ft 270°   270° 8 kt METAR EDWE 211920Z AUTO 27008KT 9999 // BKN150/// 13/09 Q1019
20:50
V
13 °C 10 km+ 16.000 ft 280°   280° 7 kt METAR EDWE 211850Z AUTO 28007KT 9999 // FEW140/// BKN160/// 13/09 Q1019
20:20
V
13 °C 10 km+ - 290°   290° 8 kt METAR EDWE 211820Z 29008KT CAVOK 13/09 Q1019
19:50
V
14 °C 10 km+ - 300°   300° 10 kt METAR EDWE 211750Z 30010KT CAVOK 14/10 Q1019
19:20
V
14 °C 10 km+ - 290°   290° 11 kt METAR EDWE 211720Z 29011KT 9999 FEW047 14/10 Q1019
18:50
V
15 °C 10 km+ - 290°   290° 12 kt METAR EDWE 211650Z 29012KT 9999 SCT025 15/10 Q1019
18:20
V
15 °C 10 km+ - 290°   290° 12 kt METAR EDWE 211620Z 29012KT 9999 FEW024 15/10 Q1019
17:50
V
16 °C 10 km+ - 290°   290° 12 kt METAR EDWE 211550Z 29012KT 260V320 9999 FEW021 16/10 Q1019
17:20
V
16 °C 10 km+ - 290°   290° 13 kt METAR EDWE 211520Z 29013KT 9999 FEW024 16/10 Q1019
16:50
V
16 °C 10 km+ - 300°   300° 15 kt METAR EDWE 211450Z 30015KT 9999 FEW025 16/10 Q1019
Données plus anciennes

Télécharge notre application

Un accès facile à toute la météo aéronautique sur ton téléphone portable et ta tablette.
Avec de nombreuses fonctionnalités non disponibles sur le site Web, comme la prise en charge hors ligne et une liste personnelle d'aéroports.

Nous et des tiers suivons ton comportement sur Internet sur notre site Web à l'aide de cookies. Si tu continues, nous supposons que tu acceptes notre politique en matière de cookies. Apprendre plus